Portada
METAR-TAF:

METAR-TAF

Aeroports :

Tarakan, Indonèsia

latitud: 03-19-36N, longitud: 117-33-56E, altitud: 6 m

Observació

L'informe es va fer fa 2 hores i 18 minuts, a les 09:00 UTC
Vent 7 kt del Est
Temperatura 30°C
Humitat 79%
Pressió 1009 hPa
Visibilitat: 6000 m
Núvols disperses a una alçada de 1500 ft

METAR: WAQQ 180900Z 09007KT 6000 SCT015 30/26 Q1009

Hora: 18:18 (11:18 UTC)

Pronòstic

L'informe es va fer fa 6 hores i 18 minuts, a les 05:00 UTC
Pronòstic vàlid del 18 a les 06 UTC al 18 a les 18 UTC
Vent 4 kt del Sud/Sud-Oest
Visibilitat: 7000 m
Escasses núvols a una alçada de 1500 ft

TAF: WAQQ 180500Z 1806/1818 20004KT 7000 FEW015

Observacions i pronòstics meteorològics de més de 4000 aeroports (METAR i TAF).

Les estacions disponibles són els punts grocs i vermells al mapa.

Posi el ratolí al punt desitjat per veure el nom de l'estació.

Feu clic per veure les observacions i els pronòstics meteorològics.

Per canviar el mapa: feu clic els botons verds amb una creu de color negre per apropar; al botó verd amb un guió per allunyar la imatge; o en les fletxes verdes per a mapes adjacents.


METAR-TAF: